Terminal Aerodrome Forecast
Issued by NWS

Home | Current Version | Previous Version | Graphics & Text | Print | Product List | Glossary On
Versions: 1 2 3 4 5 6 7 8 9 10 11 12 13 14 15 16 17 18 19 20 21
248
FTUS43 KABR 242325 AAB
TAFATY
TAF AMD
KATY 242325Z 2423/2524 31010KT P6SM SCT200
     FM250500 35011KT P6SM OVC015
     FM251700 01016G24KT 4SM -RA OVC007=

USA.gov is the U.S. government's official web portal to all federal, state and local government web resources and services.